createdAt,value
2019-01-25T00:00:32.675Z,-0.97
2019-01-25T00:03:03.419Z,-1.00
2019-01-25T00:05:30.526Z,-0.97
2019-01-25T00:07:59.476Z,-0.97
2019-01-25T00:10:28.409Z,-1.01
2019-01-25T00:12:57.331Z,-1.00
2019-01-25T00:15:26.288Z,-1.07
2019-01-25T00:17:55.255Z,-1.03
2019-01-25T00:20:24.200Z,-0.96
2019-01-25T00:22:53.130Z,-1.01
2019-01-25T00:25:22.084Z,-0.95
2019-01-25T00:27:51.016Z,-1.08
2019-01-25T00:30:19.981Z,-1.13
2019-01-25T00:32:48.913Z,-1.19
2019-01-25T00:35:17.880Z,-1.15
2019-01-25T00:37:46.828Z,-1.35
2019-01-25T00:40:15.851Z,-1.24
2019-01-25T00:42:44.786Z,-1.30
2019-01-25T00:45:13.736Z,-1.30
2019-01-25T00:47:42.682Z,-1.30
2019-01-25T00:50:14.813Z,-1.33
2019-01-25T00:52:43.761Z,-1.33
2019-01-25T00:55:12.693Z,-1.27
2019-01-25T00:57:41.729Z,-1.24
2019-01-25T01:00:14.254Z,-1.33
2019-01-25T01:02:43.185Z,-1.40
2019-01-25T01:05:12.148Z,-1.50
2019-01-25T01:07:41.099Z,-1.36
2019-01-25T01:10:14.255Z,-1.37
2019-01-25T01:12:39.610Z,-1.40
2019-01-25T01:15:09.363Z,-1.51
2019-01-25T01:17:38.303Z,-1.41
2019-01-25T01:20:09.805Z,-1.38
2019-01-25T01:22:38.746Z,-1.37
2019-01-25T01:25:07.775Z,-1.49
2019-01-25T01:27:36.733Z,-1.12
2019-01-25T01:30:06.117Z,-1.38
2019-01-25T01:32:35.042Z,-1.37
2019-01-25T01:35:04.042Z,-1.41
2019-01-25T01:37:32.967Z,-1.29
2019-01-25T01:40:01.915Z,-1.23
2019-01-25T01:42:30.864Z,-1.18
2019-01-25T01:44:59.808Z,-1.22
2019-01-25T01:47:28.762Z,-1.29
2019-01-25T01:49:57.679Z,-1.27
2019-01-25T01:52:26.639Z,-1.23
2019-01-25T01:54:55.578Z,-1.21
2019-01-25T01:57:24.523Z,-1.22
2019-01-25T01:59:53.475Z,-1.29
2019-01-25T02:02:22.436Z,-0.95
2019-01-25T02:04:51.416Z,-1.18
2019-01-25T02:07:20.353Z,-1.33
2019-01-25T02:09:49.296Z,-1.40
2019-01-25T02:12:18.290Z,-1.29
2019-01-25T02:14:47.216Z,-1.23
2019-01-25T02:17:16.178Z,-1.33
2019-01-25T02:19:45.129Z,-1.27
2019-01-25T02:22:14.077Z,-1.29
2019-01-25T02:24:43.009Z,-1.24
2019-01-25T02:27:11.943Z,-1.30
2019-01-25T02:29:40.895Z,-1.25
2019-01-25T02:32:09.804Z,-1.25
2019-01-25T02:34:38.762Z,-1.30
2019-01-25T02:37:07.701Z,-1.25
2019-01-25T02:39:36.745Z,-1.25
2019-01-25T02:42:05.687Z,-0.98
2019-01-25T02:44:34.625Z,-1.21
2019-01-25T02:47:03.578Z,-1.26
2019-01-25T02:49:32.534Z,-1.32
2019-01-25T02:52:01.453Z,-1.36
2019-01-25T02:54:30.403Z,-1.23
2019-01-25T02:56:59.365Z,-1.29
2019-01-25T02:59:28.319Z,-1.27
2019-01-25T03:01:57.281Z,-1.25
2019-01-25T03:04:26.198Z,-1.35
2019-01-25T03:06:55.123Z,-1.39
2019-01-25T03:09:24.054Z,-1.41
2019-01-25T03:11:52.978Z,-1.46
2019-01-25T03:14:21.925Z,-1.43
2019-01-25T03:16:50.869Z,-1.36
2019-01-25T03:19:19.809Z,-1.27
2019-01-25T03:21:48.729Z,-0.95
2019-01-25T03:24:17.666Z,-1.08
2019-01-25T03:26:46.620Z,-1.21
2019-01-25T03:29:15.577Z,-1.22
2019-01-25T03:31:44.514Z,-1.14
2019-01-25T03:34:13.472Z,-1.16
2019-01-25T03:36:42.424Z,-1.17
2019-01-25T03:39:11.357Z,-1.23
2019-01-25T03:41:40.322Z,-1.16
2019-01-25T03:44:09.264Z,-1.12
2019-01-25T03:46:38.209Z,-1.18
2019-01-25T03:49:07.149Z,-1.15
2019-01-25T03:51:36.092Z,-1.15
2019-01-25T03:54:05.028Z,-1.16
2019-01-25T03:56:33.952Z,-1.28
2019-01-25T03:59:02.884Z,-1.31
2019-01-25T04:01:31.812Z,-1.40
2019-01-25T04:04:00.744Z,-1.40
2019-01-25T04:06:29.699Z,-1.32
2019-01-25T04:08:58.625Z,-1.35
2019-01-25T04:11:27.558Z,-1.34
2019-01-25T04:13:56.479Z,-1.37
2019-01-25T04:16:25.444Z,-1.42
2019-01-25T04:18:54.400Z,-1.34
2019-01-25T04:21:23.329Z,-1.37
2019-01-25T04:23:52.286Z,-1.48
2019-01-25T04:26:21.215Z,-1.42
2019-01-25T04:28:50.193Z,-1.53
2019-01-25T04:31:19.120Z,-1.43
2019-01-25T04:33:48.065Z,-1.45
2019-01-25T04:36:17.000Z,-1.40
2019-01-25T04:38:45.970Z,-1.45
2019-01-25T04:41:14.902Z,-1.44
2019-01-25T04:43:43.878Z,-1.41
2019-01-25T04:46:12.841Z,-1.03
2019-01-25T04:48:41.813Z,-0.83
2019-01-25T04:51:10.735Z,-0.67
2019-01-25T04:53:39.690Z,-0.92
2019-01-25T04:56:08.643Z,-1.04
2019-01-25T04:58:37.600Z,-1.12
2019-01-25T05:01:07.987Z,-1.19
2019-01-25T05:03:36.895Z,-1.22
2019-01-25T05:06:06.707Z,-1.33
2019-01-25T05:08:35.620Z,-1.28
2019-01-25T05:11:04.873Z,-1.38
2019-01-25T05:13:33.789Z,-1.44
2019-01-25T05:16:02.746Z,-1.52
2019-01-25T05:18:31.567Z,-1.48
2019-01-25T05:21:00.476Z,-1.56
2019-01-25T05:23:29.372Z,-1.64
2019-01-25T05:25:58.253Z,-1.62
2019-01-25T05:28:27.152Z,-1.60
2019-01-25T05:31:03.790Z,-1.58
2019-01-25T05:33:32.701Z,-1.52
2019-01-25T05:36:01.593Z,-1.43
2019-01-25T05:38:30.513Z,-1.44
2019-01-25T05:40:59.421Z,-1.40
2019-01-25T05:43:28.341Z,-1.54
2019-01-25T05:45:57.225Z,-1.47
2019-01-25T05:48:29.520Z,-1.50
2019-01-25T05:51:02.943Z,-1.52
2019-01-25T05:53:31.839Z,-1.44
2019-01-25T05:56:00.785Z,-1.54
2019-01-25T05:58:29.684Z,-1.52
2019-01-25T06:00:58.586Z,-1.47
2019-01-25T06:03:27.496Z,-1.51
2019-01-25T06:06:03.872Z,-1.61
2019-01-25T06:08:33.690Z,-1.54
2019-01-25T06:11:09.847Z,-1.52
2019-01-25T06:13:39.800Z,-1.46
2019-01-25T06:16:08.699Z,-1.53
2019-01-25T06:18:37.592Z,-1.44
2019-01-25T06:21:06.509Z,-1.47
2019-01-25T06:23:35.415Z,-1.41
2019-01-25T06:26:05.007Z,-1.43
2019-01-25T06:28:33.895Z,-1.47
2019-01-25T06:31:02.803Z,-1.39
2019-01-25T06:33:31.686Z,-1.30
2019-01-25T06:36:00.585Z,-1.33
2019-01-25T06:38:29.523Z,-1.38
2019-01-25T06:40:58.372Z,-1.36
2019-01-25T06:43:27.282Z,-1.37
2019-01-25T06:45:56.226Z,-1.41
2019-01-25T06:48:25.153Z,-1.39
2019-01-25T06:50:54.044Z,-1.40
2019-01-25T06:53:22.938Z,-1.45
2019-01-25T06:55:51.901Z,-1.06
2019-01-25T06:58:55.171Z,-0.87
2019-01-25T07:01:57.999Z,-1.10
2019-01-25T07:04:26.878Z,-0.71
2019-01-25T07:06:55.769Z,-1.07
2019-01-25T07:09:24.671Z,-1.21
2019-01-25T07:11:53.540Z,-1.16
2019-01-25T07:14:22.450Z,-1.23
2019-01-25T07:16:51.338Z,-1.30
2019-01-25T07:19:20.214Z,-1.37
2019-01-25T07:21:49.112Z,-1.39
2019-01-25T07:24:18.003Z,-1.64
2019-01-25T07:26:46.899Z,-1.56
2019-01-25T07:29:15.811Z,-1.56
2019-01-25T07:31:46.275Z,-1.45
2019-01-25T07:34:13.555Z,-1.41
2019-01-25T07:36:42.440Z,-1.33
2019-01-25T07:39:21.609Z,-1.37
2019-01-25T07:41:50.498Z,-1.38
2019-01-25T07:44:19.436Z,-1.49
2019-01-25T07:46:48.288Z,-1.13
2019-01-25T07:49:17.153Z,-1.01
2019-01-25T07:51:46.049Z,-1.38
2019-01-25T07:54:14.940Z,-1.56
2019-01-25T07:56:43.885Z,-1.51
2019-01-25T07:59:12.725Z,-1.47
2019-01-25T08:01:41.637Z,-1.50
2019-01-25T08:04:13.764Z,-1.48
2019-01-25T08:06:43.222Z,-1.42
2019-01-25T08:09:17.206Z,-1.38
2019-01-25T08:11:49.349Z,-1.41
2019-01-25T08:14:18.543Z,-1.49
2019-01-25T08:16:50.044Z,-1.53
2019-01-25T08:19:19.200Z,-1.69
2019-01-25T08:21:50.177Z,-1.60
2019-01-25T08:24:25.534Z,-1.64
2019-01-25T08:26:54.936Z,-1.57
2019-01-25T08:29:28.205Z,-1.54
2019-01-25T08:31:57.819Z,-1.47
2019-01-25T08:34:27.329Z,-1.39
2019-01-25T08:36:56.668Z,-1.32
2019-01-25T08:39:29.083Z,-1.24
2019-01-25T08:41:59.659Z,-1.15
2019-01-25T08:44:29.223Z,-1.00
2019-01-25T08:46:58.172Z,-0.90
2019-01-25T08:49:27.456Z,-0.82
2019-01-25T08:51:59.202Z,-0.89
2019-01-25T08:54:28.769Z,-0.54
2019-01-25T08:56:58.353Z,-0.84
2019-01-25T08:59:27.554Z,-0.68
2019-01-25T09:01:56.617Z,-0.70
2019-01-25T09:04:33.812Z,-0.63
2019-01-25T09:07:05.462Z,-0.62
2019-01-25T09:09:34.344Z,-0.68
2019-01-25T09:12:03.235Z,-0.73
2019-01-25T09:14:32.116Z,-0.64
2019-01-25T09:17:00.998Z,-0.66
2019-01-25T09:19:29.882Z,-0.60
2019-01-25T09:21:58.777Z,-0.58
2019-01-25T09:24:27.699Z,-0.50
2019-01-25T09:26:56.599Z,-0.43
2019-01-25T09:29:25.511Z,-0.39
2019-01-25T09:31:54.406Z,-0.34
2019-01-25T09:34:23.306Z,-0.25
2019-01-25T09:36:52.198Z,-0.39
2019-01-25T09:39:21.074Z,-0.32
2019-01-25T09:41:49.984Z,-0.38
2019-01-25T09:44:18.896Z,-0.34
2019-01-25T09:46:47.757Z,-0.25
2019-01-25T09:49:16.652Z,-0.19
2019-01-25T09:51:45.546Z,-0.13
2019-01-25T09:54:14.465Z,-0.17
2019-01-25T09:56:43.341Z,-0.09
2019-01-25T09:59:12.220Z,-0.07
2019-01-25T10:01:41.113Z,0.04
2019-01-25T10:04:10.025Z,0.02
2019-01-25T10:06:38.888Z,0.21
2019-01-25T10:09:09.189Z,0.09
2019-01-25T10:11:38.137Z,0.18
2019-01-25T10:14:06.997Z,0.22
2019-01-25T10:16:35.877Z,0.26
2019-01-25T10:19:04.832Z,0.34
2019-01-25T10:21:33.715Z,0.45
2019-01-25T10:24:02.616Z,0.43
2019-01-25T10:26:31.513Z,0.46
2019-01-25T10:29:00.446Z,0.94
2019-01-25T10:31:29.283Z,1.17
2019-01-25T10:33:58.203Z,0.70
2019-01-25T10:36:27.106Z,1.19
2019-01-25T10:38:56.049Z,0.83
2019-01-25T10:41:24.898Z,0.71
2019-01-25T10:43:53.800Z,0.59
2019-01-25T10:46:22.676Z,0.63
2019-01-25T10:48:51.581Z,0.53
2019-01-25T10:51:20.462Z,0.59
2019-01-25T10:53:49.323Z,0.43
2019-01-25T10:56:18.235Z,0.41
2019-01-25T10:58:47.096Z,0.54
2019-01-25T11:01:16.006Z,0.58
2019-01-25T11:03:46.569Z,0.32
2019-01-25T11:06:13.770Z,0.57
2019-01-25T11:08:42.641Z,0.68
2019-01-25T11:11:11.536Z,0.57
2019-01-25T11:13:40.436Z,0.67
2019-01-25T11:16:11.917Z,1.27
2019-01-25T11:18:38.245Z,0.99
2019-01-25T11:21:07.152Z,0.88
2019-01-25T11:23:36.023Z,0.85
2019-01-25T11:26:04.932Z,0.91
2019-01-25T11:28:33.807Z,1.00
2019-01-25T11:31:02.690Z,1.15
2019-01-25T11:33:31.575Z,1.06
2019-01-25T11:36:00.497Z,1.03
2019-01-25T11:38:29.386Z,1.18
2019-01-25T11:40:58.262Z,1.40
2019-01-25T11:43:27.178Z,1.19
2019-01-25T11:45:56.064Z,1.22
2019-01-25T11:48:24.976Z,1.29
2019-01-25T11:50:53.878Z,1.25
2019-01-25T11:53:24.357Z,1.45
2019-01-25T11:55:53.189Z,1.41
2019-01-25T11:58:22.138Z,1.39
2019-01-25T12:00:51.033Z,1.49
2019-01-25T12:03:19.945Z,1.41
2019-01-25T12:05:48.807Z,1.26
2019-01-25T12:08:17.681Z,1.41
2019-01-25T12:10:46.578Z,1.48
2019-01-25T12:13:16.252Z,1.58
2019-01-25T12:15:44.352Z,1.37
2019-01-25T12:18:13.257Z,1.92
2019-01-25T12:20:42.133Z,1.51
2019-01-25T12:23:11.999Z,1.43
2019-01-25T12:25:39.919Z,1.56
2019-01-25T12:28:08.803Z,2.11
2019-01-25T12:30:39.011Z,1.96
2019-01-25T12:33:08.964Z,2.23
2019-01-25T12:35:40.189Z,1.91
2019-01-25T12:38:09.100Z,1.97
2019-01-25T12:40:42.153Z,1.99
2019-01-25T12:43:06.852Z,1.87
2019-01-25T12:45:35.774Z,2.43
2019-01-25T12:48:04.760Z,2.29
2019-01-25T12:50:49.006Z,2.14
2019-01-25T12:53:15.335Z,2.06
2019-01-25T12:55:44.219Z,1.75
2019-01-25T12:58:13.122Z,1.95
2019-01-25T13:00:42.373Z,2.09
2019-01-25T13:03:11.474Z,1.80
2019-01-25T13:05:40.360Z,1.86
2019-01-25T13:08:09.254Z,1.92
2019-01-25T13:10:38.125Z,1.77
2019-01-25T13:13:07.032Z,1.71
2019-01-25T13:15:35.899Z,1.93
2019-01-25T13:18:04.790Z,1.77
2019-01-25T13:20:33.664Z,1.75
2019-01-25T13:23:02.544Z,1.81
2019-01-25T13:25:31.414Z,1.78
2019-01-25T13:28:00.297Z,1.91
2019-01-25T13:30:29.213Z,1.92
2019-01-25T13:32:58.120Z,2.19
2019-01-25T13:35:26.980Z,2.31
2019-01-25T13:37:55.860Z,2.14
2019-01-25T13:40:24.947Z,2.05
2019-01-25T13:42:53.825Z,1.89
2019-01-25T13:45:22.953Z,1.89
2019-01-25T13:47:51.884Z,1.91
2019-01-25T13:50:22.907Z,1.77
2019-01-25T13:52:51.781Z,1.64
2019-01-25T13:55:20.704Z,1.87
2019-01-25T13:57:49.566Z,1.81
2019-01-25T14:00:29.443Z,1.91
2019-01-25T14:02:58.336Z,1.90
2019-01-25T14:05:27.218Z,1.92
2019-01-25T14:07:56.173Z,2.04
2019-01-25T14:10:29.794Z,1.94
2019-01-25T14:12:58.695Z,2.00
2019-01-25T14:15:31.057Z,1.94
2019-01-25T14:18:00.399Z,1.74
2019-01-25T14:20:34.089Z,1.74
2019-01-25T14:23:10.483Z,1.64
2019-01-25T14:25:39.712Z,1.75
2019-01-25T14:28:08.823Z,1.68
2019-01-25T14:30:39.839Z,1.61
2019-01-25T14:33:09.510Z,1.65
2019-01-25T14:35:39.372Z,1.92
2019-01-25T14:38:09.293Z,1.84
2019-01-25T14:40:38.206Z,1.87
2019-01-25T14:43:07.117Z,1.72
2019-01-25T14:45:36.784Z,1.69
2019-01-25T14:48:06.282Z,1.75
2019-01-25T14:50:35.144Z,1.69
2019-01-25T14:53:04.038Z,1.73
2019-01-25T14:55:32.911Z,1.67
2019-01-25T14:58:01.808Z,1.67
2019-01-25T15:00:30.822Z,1.66
2019-01-25T15:02:59.729Z,1.74
2019-01-25T15:05:28.659Z,1.69
2019-01-25T15:07:57.623Z,1.98
2019-01-25T15:10:26.529Z,2.15
2019-01-25T15:12:57.352Z,2.25
2019-01-25T15:15:26.301Z,1.84
2019-01-25T15:17:55.238Z,2.26
2019-01-25T15:20:26.369Z,2.54
2019-01-25T15:22:57.981Z,2.13
2019-01-25T15:25:26.921Z,1.89
2019-01-25T15:27:55.799Z,2.03
2019-01-25T15:30:26.822Z,1.95
2019-01-25T15:32:55.714Z,1.79
2019-01-25T15:35:24.590Z,1.78
2019-01-25T15:37:53.485Z,1.81
2019-01-25T15:40:22.430Z,1.89
2019-01-25T15:42:54.775Z,1.88
2019-01-25T15:45:26.834Z,1.74
2019-01-25T15:47:55.949Z,1.84
2019-01-25T15:50:27.466Z,1.88
2019-01-25T15:52:56.626Z,1.81
2019-01-25T15:55:25.969Z,2.11
2019-01-25T15:57:55.165Z,1.91
2019-01-25T16:00:25.229Z,1.96
2019-01-25T16:02:54.190Z,1.84
2019-01-25T16:05:23.697Z,1.74
2019-01-25T16:07:52.660Z,1.76
2019-01-25T16:10:21.806Z,1.78
2019-01-25T16:12:51.197Z,1.84
2019-01-25T16:15:25.338Z,1.84
2019-01-25T16:17:54.214Z,1.90
2019-01-25T16:20:23.158Z,1.79
2019-01-25T16:22:52.033Z,2.11
2019-01-25T16:25:26.443Z,1.91
2019-01-25T16:27:55.336Z,1.76
2019-01-25T16:30:26.362Z,1.83
2019-01-25T16:32:55.252Z,1.90
2019-01-25T16:35:24.139Z,1.85
2019-01-25T16:37:53.022Z,1.94
2019-01-25T16:40:22.645Z,1.92
2019-01-25T16:42:51.518Z,2.37
2019-01-25T16:45:25.848Z,1.96
2019-01-25T16:47:54.809Z,2.05
2019-01-25T16:50:24.126Z,1.94
2019-01-25T16:52:52.521Z,2.11
2019-01-25T16:55:21.411Z,1.96
2019-01-25T16:57:50.314Z,2.04
2019-01-25T17:00:22.050Z,2.11
2019-01-25T17:02:50.942Z,2.28
2019-01-25T17:05:19.809Z,2.07
2019-01-25T17:07:48.719Z,2.17
2019-01-25T17:10:17.676Z,2.18
2019-01-25T17:12:46.538Z,2.30
2019-01-25T17:15:15.489Z,2.00
2019-01-25T17:17:44.377Z,2.10
2019-01-25T17:20:20.022Z,2.16
2019-01-25T17:22:42.798Z,2.18
2019-01-25T17:25:11.703Z,2.15
2019-01-25T17:27:40.575Z,2.10
2019-01-25T17:30:19.202Z,2.20
2019-01-25T17:32:48.077Z,2.32
2019-01-25T17:35:17.070Z,2.21
2019-01-25T17:37:46.023Z,2.33
2019-01-25T17:40:16.204Z,2.28
2019-01-25T17:42:45.084Z,2.26
2019-01-25T17:45:14.048Z,2.40
2019-01-25T17:47:42.956Z,2.41
2019-01-25T17:50:12.592Z,2.50
2019-01-25T17:52:41.554Z,2.72
2019-01-25T17:55:10.881Z,2.56
2019-01-25T17:57:39.776Z,2.59
2019-01-25T18:00:17.701Z,2.55
2019-01-25T18:02:46.606Z,2.65
2019-01-25T18:05:15.462Z,2.53
2019-01-25T18:07:44.399Z,2.46
2019-01-25T18:10:14.896Z,2.57
2019-01-25T18:12:43.766Z,2.53
2019-01-25T18:15:12.818Z,2.57
2019-01-25T18:17:41.707Z,2.58
2019-01-25T18:20:12.694Z,2.60
2019-01-25T18:22:41.960Z,2.59
2019-01-25T18:25:12.817Z,2.55
2019-01-25T18:27:44.862Z,2.55
2019-01-25T18:30:21.249Z,2.64
2019-01-25T18:32:50.132Z,2.93
2019-01-25T18:35:19.045Z,2.84
2019-01-25T18:37:47.915Z,2.84
2019-01-25T18:40:16.870Z,2.80
2019-01-25T18:42:45.763Z,3.08
2019-01-25T18:45:14.653Z,2.92
2019-01-25T18:47:46.260Z,2.87
2019-01-25T18:50:15.296Z,2.83
2019-01-25T18:52:44.178Z,2.85
2019-01-25T18:55:15.575Z,2.88
2019-01-25T18:57:44.504Z,2.85
2019-01-25T19:00:16.430Z,2.85
2019-01-25T19:02:45.475Z,2.89
2019-01-25T19:05:14.348Z,3.22
2019-01-25T19:07:43.240Z,3.00
2019-01-25T19:10:15.393Z,3.14
2019-01-25T19:12:44.273Z,2.95
2019-01-25T19:15:14.739Z,3.05
2019-01-25T19:17:43.680Z,3.00
2019-01-25T19:20:13.135Z,2.92
2019-01-25T19:22:42.002Z,3.03
2019-01-25T19:25:10.953Z,3.04
2019-01-25T19:27:39.793Z,3.05
2019-01-25T19:30:14.111Z,3.05
2019-01-25T19:32:43.005Z,2.97
2019-01-25T19:35:11.950Z,3.08
2019-01-25T19:37:40.839Z,3.07
2019-01-25T19:40:11.781Z,3.01
2019-01-25T19:42:40.651Z,3.02
2019-01-25T19:45:11.975Z,3.07
2019-01-25T19:47:39.091Z,3.07
2019-01-25T19:50:09.928Z,3.08
2019-01-25T19:52:38.858Z,3.07
2019-01-25T19:55:10.979Z,3.17
2019-01-25T19:57:39.873Z,3.20
2019-01-25T20:00:15.476Z,3.21
2019-01-25T20:02:44.390Z,3.32
2019-01-25T20:05:14.206Z,3.30
2019-01-25T20:07:43.114Z,3.27
2019-01-25T20:10:12.035Z,3.34
2019-01-25T20:12:40.938Z,3.54
2019-01-25T20:15:19.243Z,3.58
2019-01-25T20:17:40.820Z,3.44
2019-01-25T20:20:13.308Z,3.43
2019-01-25T20:22:42.264Z,3.49
2019-01-25T20:25:11.153Z,3.54
2019-01-25T20:27:40.032Z,3.61
2019-01-25T20:30:12.368Z,3.64
2019-01-25T20:32:41.400Z,3.62
2019-01-25T20:35:12.302Z,3.69
2019-01-25T20:37:41.307Z,3.68
2019-01-25T20:40:12.310Z,3.68
2019-01-25T20:42:41.322Z,3.66
2019-01-25T20:45:13.269Z,3.71
2019-01-25T20:47:42.196Z,3.76
2019-01-25T20:50:13.623Z,4.08
2019-01-25T20:52:42.512Z,3.81
2019-01-25T20:55:12.722Z,4.00
2019-01-25T20:57:41.630Z,3.95
2019-01-25T21:00:13.590Z,4.32
2019-01-25T21:02:42.489Z,4.12
2019-01-25T21:05:11.393Z,4.11
2019-01-25T21:07:40.287Z,4.09
2019-01-25T21:10:11.611Z,4.11
2019-01-25T21:12:40.494Z,4.09
2019-01-25T21:15:11.064Z,4.03
2019-01-25T21:17:39.923Z,4.07
2019-01-25T21:20:14.637Z,4.09
2019-01-25T21:22:43.561Z,4.16
2019-01-25T21:25:12.458Z,4.07
2019-01-25T21:27:41.347Z,4.10
2019-01-25T21:30:13.878Z,4.15
2019-01-25T21:32:42.785Z,4.22
2019-01-25T21:35:11.776Z,4.32
2019-01-25T21:37:40.656Z,4.30
2019-01-25T21:40:14.906Z,4.27
2019-01-25T21:42:43.811Z,4.39
2019-01-25T21:45:14.821Z,4.38
2019-01-25T21:47:43.733Z,4.43
2019-01-25T21:50:14.261Z,4.40
2019-01-25T21:52:43.159Z,4.48
2019-01-25T21:55:12.746Z,4.45
2019-01-25T21:57:41.639Z,4.51
2019-01-25T22:00:16.370Z,4.48
2019-01-25T22:02:45.268Z,4.52
2019-01-25T22:05:14.161Z,4.62
2019-01-25T22:07:43.046Z,4.58
2019-01-25T22:10:14.903Z,4.63
2019-01-25T22:12:43.824Z,4.65
2019-01-25T22:15:12.913Z,4.71
2019-01-25T22:17:41.783Z,4.68
2019-01-25T22:20:14.353Z,4.78
2019-01-25T22:22:43.252Z,4.80
2019-01-25T22:25:12.455Z,4.82
2019-01-25T22:27:41.376Z,4.90
2019-01-25T22:30:12.867Z,4.90
2019-01-25T22:32:41.736Z,4.93
2019-01-25T22:35:10.623Z,5.27
2019-01-25T22:37:39.508Z,5.19
2019-01-25T22:40:11.058Z,5.19
2019-01-25T22:42:39.928Z,5.22
2019-01-25T22:45:11.134Z,5.27
2019-01-25T22:47:40.064Z,5.33
2019-01-25T22:50:20.856Z,5.32
2019-01-25T22:52:49.743Z,5.35
2019-01-25T22:55:18.730Z,5.41
2019-01-25T22:57:47.647Z,5.43
2019-01-25T23:00:48.217Z,5.46
2019-01-25T23:03:20.085Z,5.50
2019-01-25T23:06:21.212Z,5.56
2019-01-25T23:08:50.114Z,5.58
2019-01-25T23:11:18.993Z,5.60
2019-01-25T23:13:47.912Z,5.66
2019-01-25T23:16:16.787Z,5.97
2019-01-25T23:18:45.703Z,5.82
2019-01-25T23:21:14.571Z,5.82
2019-01-25T23:23:43.495Z,5.86
2019-01-25T23:26:12.377Z,5.85
2019-01-25T23:28:41.269Z,5.92
2019-01-25T23:31:10.143Z,5.88
2019-01-25T23:33:39.047Z,5.87
2019-01-25T23:36:07.942Z,5.92
2019-01-25T23:38:36.809Z,5.95
2019-01-25T23:41:05.710Z,5.91
2019-01-25T23:43:34.580Z,5.97
2019-01-25T23:46:03.501Z,6.02
2019-01-25T23:48:32.375Z,6.02
2019-01-25T23:51:01.340Z,6.08
2019-01-25T23:53:30.189Z,6.04
2019-01-25T23:55:59.091Z,6.06
2019-01-25T23:58:27.977Z,6.06
